sensor_id;sensor_type;location;lat;lon;timestamp;pressure;altitude;pressure_sealevel;temperature;humidity
74270;BME280;62754;48.252;11.654;2023-08-31T00:00:22;95598.63;;;13.85;88.42
74270;BME280;62754;48.252;11.654;2023-08-31T00:02:48;95592.47;;;13.86;87.86
74270;BME280;62754;48.252;11.654;2023-08-31T00:05:13;95593.44;;;13.85;88.83
74270;BME280;62754;48.252;11.654;2023-08-31T00:07:39;95594.66;;;13.73;89.26
74270;BME280;62754;48.252;11.654;2023-08-31T00:10:05;95603.75;;;13.77;88.83
74270;BME280;62754;48.252;11.654;2023-08-31T00:12:31;95598.03;;;13.65;89.43
74270;BME280;62754;48.252;11.654;2023-08-31T00:14:57;95588.25;;;13.59;90.29
74270;BME280;62754;48.252;11.654;2023-08-31T00:17:22;95594.50;;;13.49;90.32
74270;BME280;62754;48.252;11.654;2023-08-31T00:19:48;95596.09;;;13.42;91.42
74270;BME280;62754;48.252;11.654;2023-08-31T00:22:14;95593.38;;;13.43;90.44
74270;BME280;62754;48.252;11.654;2023-08-31T00:24:39;95592.19;;;13.38;91.68
74270;BME280;62754;48.252;11.654;2023-08-31T00:27:05;95596.53;;;13.37;91.55
74270;BME280;62754;48.252;11.654;2023-08-31T00:29:31;95604.09;;;13.30;91.89
74270;BME280;62754;48.252;11.654;2023-08-31T00:31:57;95607.16;;;13.26;91.83
74270;BME280;62754;48.252;11.654;2023-08-31T00:34:22;95606.31;;;13.25;92.19
74270;BME280;62754;48.252;11.654;2023-08-31T00:36:48;95602.66;;;13.28;91.43
74270;BME280;62754;48.252;11.654;2023-08-31T00:39:14;95604.72;;;13.24;92.08
74270;BME280;62754;48.252;11.654;2023-08-31T00:41:40;95609.59;;;13.27;91.55
74270;BME280;62754;48.252;11.654;2023-08-31T00:44:06;95611.16;;;13.20;92.35
74270;BME280;62754;48.252;11.654;2023-08-31T00:46:32;95614.41;;;13.22;91.93
74270;BME280;62754;48.252;11.654;2023-08-31T00:48:58;95611.34;;;13.09;91.73
74270;BME280;62754;48.252;11.654;2023-08-31T00:51:24;95618.03;;;13.12;92.02
74270;BME280;62754;48.252;11.654;2023-08-31T00:53:51;95617.22;;;13.11;92.59
74270;BME280;62754;48.252;11.654;2023-08-31T00:56:17;95623.50;;;13.09;93.25
74270;BME280;62754;48.252;11.654;2023-08-31T00:58:43;95624.28;;;13.09;92.50
74270;BME280;62754;48.252;11.654;2023-08-31T01:01:18;95622.94;;;13.05;93.23
74270;BME280;62754;48.252;11.654;2023-08-31T01:04:16;95620.84;;;13.01;92.67
74270;BME280;62754;48.252;11.654;2023-08-31T01:07:17;95620.00;;;13.00;92.90
74270;BME280;62754;48.252;11.654;2023-08-31T01:12:50;95617.88;;;12.96;94.11
74270;BME280;62754;48.252;11.654;2023-08-31T01:15:17;95612.63;;;12.87;93.78
74270;BME280;62754;48.252;11.654;2023-08-31T01:17:54;95615.34;;;12.86;93.95
74270;BME280;62754;48.252;11.654;2023-08-31T01:20:39;95616.63;;;12.82;95.55
74270;BME280;62754;48.252;11.654;2023-08-31T01:23:13;95612.09;;;12.84;94.60
74270;BME280;62754;48.252;11.654;2023-08-31T01:25:41;95615.94;;;12.80;94.53
74270;BME280;62754;48.252;11.654;2023-08-31T01:28:07;95618.91;;;12.67;95.67
74270;BME280;62754;48.252;11.654;2023-08-31T01:30:33;95630.56;;;12.54;95.61
74270;BME280;62754;48.252;11.654;2023-08-31T01:32:59;95625.19;;;12.65;95.81
74270;BME280;62754;48.252;11.654;2023-08-31T01:35:25;95619.09;;;12.56;95.01
74270;BME280;62754;48.252;11.654;2023-08-31T01:37:52;95634.31;;;12.59;96.37
74270;BME280;62754;48.252;11.654;2023-08-31T01:40:42;95636.81;;;12.51;96.35
74270;BME280;62754;48.252;11.654;2023-08-31T01:43:11;95641.56;;;12.56;96.79
74270;BME280;62754;48.252;11.654;2023-08-31T01:45:37;95640.81;;;12.46;97.42
74270;BME280;62754;48.252;11.654;2023-08-31T01:48:09;95638.22;;;12.46;97.41
74270;BME280;62754;48.252;11.654;2023-08-31T01:50:35;95642.47;;;12.64;98.09
74270;BME280;62754;48.252;11.654;2023-08-31T01:53:03;95640.38;;;12.68;97.80
74270;BME280;62754;48.252;11.654;2023-08-31T01:55:33;95635.53;;;12.65;97.90
74270;BME280;62754;48.252;11.654;2023-08-31T01:58:01;95639.56;;;12.67;97.70
74270;BME280;62754;48.252;11.654;2023-08-31T02:00:27;95639.06;;;12.64;98.25
74270;BME280;62754;48.252;11.654;2023-08-31T02:02:56;95643.66;;;12.70;98.82
74270;BME280;62754;48.252;11.654;2023-08-31T02:05:21;95650.59;;;12.69;99.19
74270;BME280;62754;48.252;11.654;2023-08-31T02:07:47;95658.66;;;12.66;98.67
74270;BME280;62754;48.252;11.654;2023-08-31T02:10:17;95663.72;;;12.76;99.38
74270;BME280;62754;48.252;11.654;2023-08-31T02:12:43;95674.06;;;12.76;98.73
74270;BME280;62754;48.252;11.654;2023-08-31T02:15:11;95670.94;;;12.82;98.55
74270;BME280;62754;48.252;11.654;2023-08-31T02:17:37;95677.34;;;12.78;98.93
74270;BME280;62754;48.252;11.654;2023-08-31T02:20:05;95675.19;;;12.91;99.70
74270;BME280;62754;48.252;11.654;2023-08-31T02:22:33;95671.56;;;12.84;99.30
74270;BME280;62754;48.252;11.654;2023-08-31T02:25:02;95669.94;;;12.83;98.96
74270;BME280;62754;48.252;11.654;2023-08-31T02:27:28;95678.28;;;12.77;100.00
74270;BME280;62754;48.252;11.654;2023-08-31T02:29:54;95683.91;;;12.90;98.48
74270;BME280;62754;48.252;11.654;2023-08-31T02:32:19;95690.50;;;12.84;98.44
74270;BME280;62754;48.252;11.654;2023-08-31T02:34:47;95693.81;;;12.95;98.15
74270;BME280;62754;48.252;11.654;2023-08-31T02:37:13;95697.94;;;12.87;98.14
74270;BME280;62754;48.252;11.654;2023-08-31T02:39:39;95692.03;;;12.95;98.43
74270;BME280;62754;48.252;11.654;2023-08-31T02:42:04;95701.06;;;12.91;97.79
74270;BME280;62754;48.252;11.654;2023-08-31T02:44:32;95704.47;;;12.92;97.77
74270;BME280;62754;48.252;11.654;2023-08-31T02:47:05;95710.53;;;13.00;96.71
74270;BME280;62754;48.252;11.654;2023-08-31T02:49:33;95711.78;;;12.96;97.64
74270;BME280;62754;48.252;11.654;2023-08-31T02:51:59;95706.31;;;12.99;97.83
74270;BME280;62754;48.252;11.654;2023-08-31T02:54:27;95705.78;;;12.96;99.24
74270;BME280;62754;48.252;11.654;2023-08-31T02:56:55;95701.44;;;12.96;100.00
74270;BME280;62754;48.252;11.654;2023-08-31T02:59:23;95694.09;;;12.92;100.00
74270;BME280;62754;48.252;11.654;2023-08-31T03:01:52;95692.25;;;12.84;100.00
74270;BME280;62754;48.252;11.654;2023-08-31T03:04:18;95691.44;;;12.83;100.00
74270;BME280;62754;48.252;11.654;2023-08-31T03:06:46;95688.19;;;12.81;100.00
74270;BME280;62754;48.252;11.654;2023-08-31T03:09:13;95679.34;;;12.84;100.00
74270;BME280;62754;48.252;11.654;2023-08-31T03:11:41;95684.94;;;12.79;100.00
74270;BME280;62754;48.252;11.654;2023-08-31T03:14:07;95690.50;;;12.84;100.00
74270;BME280;62754;48.252;11.654;2023-08-31T03:16:35;95691.81;;;12.88;100.00
74270;BME280;62754;48.252;11.654;2023-08-31T03:19:03;95683.38;;;12.86;100.00
74270;BME280;62754;48.252;11.654;2023-08-31T03:21:29;95692.91;;;12.86;100.00
74270;BME280;62754;48.252;11.654;2023-08-31T03:23:55;95685.88;;;12.78;100.00
74270;BME280;62754;48.252;11.654;2023-08-31T03:26:20;95694.75;;;12.76;100.00
74270;BME280;62754;48.252;11.654;2023-08-31T03:28:46;95698.88;;;12.69;100.00
74270;BME280;62754;48.252;11.654;2023-08-31T03:31:12;95702.00;;;12.72;100.00
74270;BME280;62754;48.252;11.654;2023-08-31T03:33:38;95697.63;;;12.73;100.00
74270;BME280;62754;48.252;11.654;2023-08-31T03:36:09;95703.34;;;12.76;100.00
74270;BME280;62754;48.252;11.654;2023-08-31T03:38:34;95709.75;;;12.72;100.00
74270;BME280;62754;48.252;11.654;2023-08-31T03:41:03;95708.78;;;12.73;100.00
74270;BME280;62754;48.252;11.654;2023-08-31T03:43:31;95721.72;;;12.73;100.00
74270;BME280;62754;48.252;11.654;2023-08-31T03:46:00;95718.75;;;12.68;100.00
74270;BME280;62754;48.252;11.654;2023-08-31T03:48:26;95722.81;;;12.71;100.00
74270;BME280;62754;48.252;11.654;2023-08-31T03:50:55;95718.22;;;12.65;100.00
74270;BME280;62754;48.252;11.654;2023-08-31T03:53:21;95733.22;;;12.61;100.00
74270;BME280;62754;48.252;11.654;2023-08-31T03:55:46;95733.09;;;12.53;100.00
74270;BME280;62754;48.252;11.654;2023-08-31T03:58:12;95736.22;;;12.57;100.00
74270;BME280;62754;48.252;11.654;2023-08-31T04:00:41;95740.97;;;12.61;100.00
74270;BME280;62754;48.252;11.654;2023-08-31T04:03:06;95734.16;;;12.60;100.00
74270;BME280;62754;48.252;11.654;2023-08-31T04:05:33;95733.88;;;12.63;100.00
74270;BME280;62754;48.252;11.654;2023-08-31T04:07:59;95742.13;;;12.67;100.00
74270;BME280;62754;48.252;11.654;2023-08-31T04:10:27;95747.38;;;12.57;100.00
74270;BME280;62754;48.252;11.654;2023-08-31T04:12:53;95745.31;;;12.61;100.00
74270;BME280;62754;48.252;11.654;2023-08-31T04:15:18;95750.59;;;12.69;100.00
74270;BME280;62754;48.252;11.654;2023-08-31T04:17:47;95746.94;;;12.62;100.00
74270;BME280;62754;48.252;11.654;2023-08-31T04:20:12;95758.84;;;12.72;100.00
74270;BME280;62754;48.252;11.654;2023-08-31T04:22:38;95748.94;;;12.68;100.00
74270;BME280;62754;48.252;11.654;2023-08-31T04:25:04;95758.63;;;12.66;100.00
74270;BME280;62754;48.252;11.654;2023-08-31T04:27:32;95763.63;;;12.67;100.00
74270;BME280;62754;48.252;11.654;2023-08-31T04:30:03;95757.63;;;12.76;100.00
74270;BME280;62754;48.252;11.654;2023-08-31T04:32:29;95771.47;;;12.85;100.00
74270;BME280;62754;48.252;11.654;2023-08-31T04:34:55;95778.28;;;12.76;100.00
74270;BME280;62754;48.252;11.654;2023-08-31T04:37:21;95779.53;;;12.72;100.00
74270;BME280;62754;48.252;11.654;2023-08-31T04:39:47;95787.59;;;12.69;100.00
74270;BME280;62754;48.252;11.654;2023-08-31T04:42:13;95786.66;;;12.61;100.00
74270;BME280;62754;48.252;11.654;2023-08-31T04:44:38;95789.47;;;12.67;100.00
74270;BME280;62754;48.252;11.654;2023-08-31T04:47:09;95791.13;;;12.68;100.00
74270;BME280;62754;48.252;11.654;2023-08-31T04:49:37;95793.38;;;12.54;100.00
74270;BME280;62754;48.252;11.654;2023-08-31T04:52:03;95800.25;;;12.63;100.00
74270;BME280;62754;48.252;11.654;2023-08-31T04:54:33;95798.34;;;12.65;100.00
74270;BME280;62754;48.252;11.654;2023-08-31T04:57:01;95799.28;;;12.64;100.00
74270;BME280;62754;48.252;11.654;2023-08-31T04:59:30;95800.88;;;12.74;100.00
74270;BME280;62754;48.252;11.654;2023-08-31T05:01:58;95805.25;;;12.74;100.00
74270;BME280;62754;48.252;11.654;2023-08-31T05:04:23;95807.56;;;12.77;100.00
74270;BME280;62754;48.252;11.654;2023-08-31T05:06:54;95806.41;;;12.89;100.00
74270;BME280;62754;48.252;11.654;2023-08-31T05:09:19;95809.00;;;12.89;100.00
74270;BME280;62754;48.252;11.654;2023-08-31T05:11:48;95814.81;;;12.91;100.00
74270;BME280;62754;48.252;11.654;2023-08-31T05:14:13;95814.44;;;12.86;100.00
74270;BME280;62754;48.252;11.654;2023-08-31T05:16:41;95812.25;;;12.91;100.00
74270;BME280;62754;48.252;11.654;2023-08-31T05:19:09;95800.94;;;12.92;100.00
74270;BME280;62754;48.252;11.654;2023-08-31T05:21:35;95805.97;;;12.94;100.00
74270;BME280;62754;48.252;11.654;2023-08-31T05:24:05;95825.06;;;12.83;100.00
74270;BME280;62754;48.252;11.654;2023-08-31T05:26:31;95828.28;;;12.95;100.00
74270;BME280;62754;48.252;11.654;2023-08-31T05:28:59;95829.69;;;12.89;100.00
74270;BME280;62754;48.252;11.654;2023-08-31T05:31:30;95830.84;;;13.04;100.00
74270;BME280;62754;48.252;11.654;2023-08-31T05:33:58;95827.69;;;13.10;100.00
74270;BME280;62754;48.252;11.654;2023-08-31T05:36:23;95822.91;;;13.06;100.00
74270;BME280;62754;48.252;11.654;2023-08-31T05:38:52;95827.56;;;13.12;100.00
74270;BME280;62754;48.252;11.654;2023-08-31T05:41:18;95843.16;;;13.20;100.00
74270;BME280;62754;48.252;11.654;2023-08-31T05:43:46;95839.47;;;13.22;100.00
74270;BME280;62754;48.252;11.654;2023-08-31T05:46:12;95836.44;;;13.27;100.00
74270;BME280;62754;48.252;11.654;2023-08-31T05:48:40;95838.31;;;13.34;100.00
74270;BME280;62754;48.252;11.654;2023-08-31T05:51:09;95853.31;;;13.31;100.00
74270;BME280;62754;48.252;11.654;2023-08-31T05:53:34;95849.22;;;13.28;100.00
74270;BME280;62754;48.252;11.654;2023-08-31T05:56:02;95856.56;;;13.33;100.00
74270;BME280;62754;48.252;11.654;2023-08-31T05:58:32;95851.91;;;13.36;100.00
74270;BME280;62754;48.252;11.654;2023-08-31T06:00:57;95850.00;;;13.39;100.00
74270;BME280;62754;48.252;11.654;2023-08-31T06:03:25;95854.44;;;13.46;100.00
74270;BME280;62754;48.252;11.654;2023-08-31T06:05:51;95850.81;;;13.57;100.00
74270;BME280;62754;48.252;11.654;2023-08-31T06:08:22;95854.44;;;13.46;100.00
74270;BME280;62754;48.252;11.654;2023-08-31T06:10:50;95852.25;;;13.51;100.00
74270;BME280;62754;48.252;11.654;2023-08-31T06:13:18;95851.50;;;13.59;100.00
74270;BME280;62754;48.252;11.654;2023-08-31T06:15:46;95853.78;;;13.62;99.78
74270;BME280;62754;48.252;11.654;2023-08-31T06:18:12;95856.69;;;13.59;98.33
74270;BME280;62754;48.252;11.654;2023-08-31T06:20:41;95867.31;;;13.56;99.58
74270;BME280;62754;48.252;11.654;2023-08-31T06:23:06;95868.56;;;13.52;97.34
74270;BME280;62754;48.252;11.654;2023-08-31T06:25:32;95872.56;;;13.64;98.05
74270;BME280;62754;48.252;11.654;2023-08-31T06:27:58;95872.31;;;13.67;98.81
74270;BME280;62754;48.252;11.654;2023-08-31T06:30:24;95874.66;;;13.78;96.69
74270;BME280;62754;48.252;11.654;2023-08-31T06:32:50;95883.63;;;13.66;97.31
74270;BME280;62754;48.252;11.654;2023-08-31T06:35:16;95885.03;;;13.78;97.11
74270;BME280;62754;48.252;11.654;2023-08-31T06:37:41;95871.09;;;13.79;97.17
74270;BME280;62754;48.252;11.654;2023-08-31T06:40:10;95886.38;;;13.82;95.32
74270;BME280;62754;48.252;11.654;2023-08-31T06:42:38;95882.78;;;13.83;95.73
74270;BME280;62754;48.252;11.654;2023-08-31T06:45:08;95886.44;;;13.90;94.20
74270;BME280;62754;48.252;11.654;2023-08-31T06:47:36;95888.22;;;13.90;96.05
74270;BME280;62754;48.252;11.654;2023-08-31T06:50:07;95886.19;;;13.83;93.73
74270;BME280;62754;48.252;11.654;2023-08-31T06:52:33;95895.09;;;13.81;93.44
74270;BME280;62754;48.252;11.654;2023-08-31T06:54:58;95894.13;;;13.82;93.73
74270;BME280;62754;48.252;11.654;2023-08-31T06:57:27;95891.53;;;14.00;93.14
74270;BME280;62754;48.252;11.654;2023-08-31T06:59:55;95884.78;;;14.07;93.05
74270;BME280;62754;48.252;11.654;2023-08-31T07:02:26;95897.75;;;14.07;92.26
74270;BME280;62754;48.252;11.654;2023-08-31T07:04:52;95893.75;;;14.12;92.95
74270;BME280;62754;48.252;11.654;2023-08-31T07:07:18;95900.34;;;14.24;91.52
74270;BME280;62754;48.252;11.654;2023-08-31T07:09:45;95902.56;;;14.37;91.95
74270;BME280;62754;48.252;11.654;2023-08-31T07:12:11;95907.59;;;14.39;92.13
74270;BME280;62754;48.252;11.654;2023-08-31T07:14:39;95907.16;;;14.43;91.54
74270;BME280;62754;48.252;11.654;2023-08-31T07:17:05;95910.69;;;14.42;90.81
74270;BME280;62754;48.252;11.654;2023-08-31T07:19:31;95898.69;;;14.59;89.44
74270;BME280;62754;48.252;11.654;2023-08-31T07:21:59;95909.81;;;14.77;90.42
74270;BME280;62754;48.252;11.654;2023-08-31T07:24:30;95906.56;;;14.75;90.29
74270;BME280;62754;48.252;11.654;2023-08-31T07:27:00;95900.66;;;14.65;88.94
74270;BME280;62754;48.252;11.654;2023-08-31T07:29:26;95910.81;;;14.84;90.34
74270;BME280;62754;48.252;11.654;2023-08-31T07:31:51;95908.13;;;14.94;90.00
74270;BME280;62754;48.252;11.654;2023-08-31T07:34:17;95919.59;;;15.17;88.08
74270;BME280;62754;48.252;11.654;2023-08-31T07:36:43;95930.28;;;15.14;86.90
74270;BME280;62754;48.252;11.654;2023-08-31T07:39:19;95925.63;;;15.25;86.97
74270;BME280;62754;48.252;11.654;2023-08-31T07:41:47;95932.59;;;15.17;85.00
74270;BME280;62754;48.252;11.654;2023-08-31T07:44:12;95938.78;;;15.24;86.85
74270;BME280;62754;48.252;11.654;2023-08-31T07:46:38;95950.03;;;15.33;83.65
74270;BME280;62754;48.252;11.654;2023-08-31T07:49:04;95941.75;;;15.37;82.88
74270;BME280;62754;48.252;11.654;2023-08-31T07:51:32;95943.50;;;15.29;83.33
74270;BME280;62754;48.252;11.654;2023-08-31T07:54:01;95949.75;;;15.44;81.88
74270;BME280;62754;48.252;11.654;2023-08-31T07:56:29;95945.59;;;15.51;82.78
74270;BME280;62754;48.252;11.654;2023-08-31T07:58:57;95944.44;;;15.53;83.28
74270;BME280;62754;48.252;11.654;2023-08-31T08:01:25;95937.94;;;15.49;82.37
74270;BME280;62754;48.252;11.654;2023-08-31T08:03:53;95950.31;;;15.55;82.51
74270;BME280;62754;48.252;11.654;2023-08-31T08:06:19;95943.38;;;15.72;79.16
74270;BME280;62754;48.252;11.654;2023-08-31T08:08:45;95944.09;;;15.90;80.58
74270;BME280;62754;48.252;11.654;2023-08-31T08:11:12;95924.97;;;16.40;77.52
74270;BME280;62754;48.252;11.654;2023-08-31T08:13:40;95931.31;;;16.53;75.59
74270;BME280;62754;48.252;11.654;2023-08-31T08:16:08;95946.09;;;17.01;72.85
74270;BME280;62754;48.252;11.654;2023-08-31T08:18:37;95946.59;;;16.89;74.30
74270;BME280;62754;48.252;11.654;2023-08-31T08:21:02;95955.22;;;16.73;73.20
74270;BME280;62754;48.252;11.654;2023-08-31T08:23:30;95957.53;;;16.60;73.71
74270;BME280;62754;48.252;11.654;2023-08-31T08:26:01;95958.44;;;16.43;73.43
74270;BME280;62754;48.252;11.654;2023-08-31T08:28:27;95964.91;;;16.23;74.22
74270;BME280;62754;48.252;11.654;2023-08-31T08:30:55;95973.69;;;16.05;76.79
74270;BME280;62754;48.252;11.654;2023-08-31T08:33:21;95975.75;;;15.94;77.24
74270;BME280;62754;48.252;11.654;2023-08-31T08:35:49;95981.25;;;15.83;78.87
74270;BME280;62754;48.252;11.654;2023-08-31T08:38:14;95980.75;;;15.87;78.78
74270;BME280;62754;48.252;11.654;2023-08-31T08:40:45;95981.41;;;15.81;78.01
74270;BME280;62754;48.252;11.654;2023-08-31T08:43:16;95974.91;;;15.85;78.35
74270;BME280;62754;48.252;11.654;2023-08-31T08:45:46;95976.88;;;15.83;75.36
74270;BME280;62754;48.252;11.654;2023-08-31T08:48:15;95973.81;;;16.04;74.33
74270;BME280;62754;48.252;11.654;2023-08-31T08:50:47;95976.00;;;16.25;73.91
74270;BME280;62754;48.252;11.654;2023-08-31T08:53:13;95981.38;;;16.39;77.32
74270;BME280;62754;48.252;11.654;2023-08-31T08:55:41;95988.03;;;16.26;74.51
74270;BME280;62754;48.252;11.654;2023-08-31T08:58:07;95984.25;;;16.20;73.20
74270;BME280;62754;48.252;11.654;2023-08-31T09:00:35;95981.34;;;16.31;74.68
74270;BME280;62754;48.252;11.654;2023-08-31T09:03:06;95985.41;;;16.17;73.12
74270;BME280;62754;48.252;11.654;2023-08-31T09:05:34;95985.69;;;15.98;73.54
74270;BME280;62754;48.252;11.654;2023-08-31T09:08:05;95987.94;;;15.93;74.31
74270;BME280;62754;48.252;11.654;2023-08-31T09:10:49;95983.22;;;15.97;75.51
74270;BME280;62754;48.252;11.654;2023-08-31T09:13:15;95986.16;;;15.94;72.23
74270;BME280;62754;48.252;11.654;2023-08-31T09:15:49;95990.97;;;15.81;70.95
74270;BME280;62754;48.252;11.654;2023-08-31T09:18:27;95994.34;;;15.73;71.56
74270;BME280;62754;48.252;11.654;2023-08-31T09:20:56;95996.81;;;15.75;73.57
74270;BME280;62754;48.252;11.654;2023-08-31T09:23:22;95994.38;;;15.81;73.45
74270;BME280;62754;48.252;11.654;2023-08-31T09:25:50;96004.47;;;15.84;73.12
74270;BME280;62754;48.252;11.654;2023-08-31T09:28:18;96004.41;;;15.68;72.60
74270;BME280;62754;48.252;11.654;2023-08-31T09:30:46;95998.31;;;15.85;71.73
74270;BME280;62754;48.252;11.654;2023-08-31T09:33:20;96001.06;;;15.92;72.05
74270;BME280;62754;48.252;11.654;2023-08-31T09:35:57;95998.66;;;15.90;74.25
74270;BME280;62754;48.252;11.654;2023-08-31T09:38:24;95994.94;;;16.01;73.79
74270;BME280;62754;48.252;11.654;2023-08-31T09:41:05;95999.03;;;16.11;71.89
74270;BME280;62754;48.252;11.654;2023-08-31T09:43:31;96009.25;;;16.05;71.74
74270;BME280;62754;48.252;11.654;2023-08-31T09:45:57;95993.13;;;15.93;73.20
74270;BME280;62754;48.252;11.654;2023-08-31T09:48:25;96008.69;;;15.85;73.54
74270;BME280;62754;48.252;11.654;2023-08-31T09:50:52;96009.63;;;15.76;72.78
74270;BME280;62754;48.252;11.654;2023-08-31T09:53:18;96011.50;;;15.58;74.22
74270;BME280;62754;48.252;11.654;2023-08-31T09:55:47;95996.59;;;15.68;75.61
74270;BME280;62754;48.252;11.654;2023-08-31T09:58:16;95997.28;;;15.70;76.17
74270;BME280;62754;48.252;11.654;2023-08-31T10:00:43;96007.06;;;15.84;76.99
74270;BME280;62754;48.252;11.654;2023-08-31T10:03:14;96000.06;;;15.77;73.24
74270;BME280;62754;48.252;11.654;2023-08-31T10:05:40;95997.97;;;15.88;73.11
74270;BME280;62754;48.252;11.654;2023-08-31T10:08:06;96009.34;;;15.87;75.66
74270;BME280;62754;48.252;11.654;2023-08-31T10:10:35;95998.47;;;15.92;74.84
74270;BME280;62754;48.252;11.654;2023-08-31T10:13:03;96005.28;;;15.85;75.53
74270;BME280;62754;48.252;11.654;2023-08-31T10:15:34;95999.94;;;15.86;75.43
74270;BME280;62754;48.252;11.654;2023-08-31T10:18:03;95999.25;;;15.84;74.95
74270;BME280;62754;48.252;11.654;2023-08-31T10:20:33;96000.88;;;15.77;75.85
74270;BME280;62754;48.252;11.654;2023-08-31T10:23:05;95993.34;;;15.66;74.18
74270;BME280;62754;48.252;11.654;2023-08-31T10:28:25;96002.00;;;15.49;75.61
74270;BME280;62754;48.252;11.654;2023-08-31T10:31:05;95998.84;;;15.55;78.34
74270;BME280;62754;48.252;11.654;2023-08-31T10:33:45;96003.72;;;15.58;76.52
74270;BME280;62754;48.252;11.654;2023-08-31T10:36:14;96003.44;;;15.43;76.69
74270;BME280;62754;48.252;11.654;2023-08-31T10:38:42;95989.25;;;15.55;76.26
74270;BME280;62754;48.252;11.654;2023-08-31T10:43:58;95997.22;;;15.28;75.89
74270;BME280;62754;48.252;11.654;2023-08-31T10:51:30;96010.38;;;15.35;78.91
74270;BME280;62754;48.252;11.654;2023-08-31T10:59:17;95990.28;;;15.45;81.31
74270;BME280;62754;48.252;11.654;2023-08-31T11:01:52;95980.03;;;15.35;84.53
74270;BME280;62754;48.252;11.654;2023-08-31T11:04:18;96005.53;;;15.40;88.44
74270;BME280;62754;48.252;11.654;2023-08-31T11:06:44;96003.97;;;15.81;86.08
74270;BME280;62754;48.252;11.654;2023-08-31T11:09:18;96008.25;;;16.64;79.94
74270;BME280;62754;48.252;11.654;2023-08-31T11:11:44;96012.47;;;16.73;74.88
74270;BME280;62754;48.252;11.654;2023-08-31T11:14:10;96009.19;;;16.55;72.85
74270;BME280;62754;48.252;11.654;2023-08-31T11:16:38;96009.81;;;16.41;74.49
74270;BME280;62754;48.252;11.654;2023-08-31T11:19:04;96012.94;;;16.60;74.89
74270;BME280;62754;48.252;11.654;2023-08-31T11:21:30;96011.78;;;17.11;72.47
74270;BME280;62754;48.252;11.654;2023-08-31T11:23:58;96002.88;;;17.69;67.57
74270;BME280;62754;48.252;11.654;2023-08-31T11:26:31;95995.22;;;18.68;61.86
74270;BME280;62754;48.252;11.654;2023-08-31T11:28:57;95991.47;;;19.81;59.55
74270;BME280;62754;48.252;11.654;2023-08-31T11:31:26;95983.09;;;20.79;54.45
74270;BME280;62754;48.252;11.654;2023-08-31T11:33:54;95983.13;;;20.22;58.86
74270;BME280;62754;48.252;11.654;2023-08-31T11:36:20;95994.31;;;19.65;57.01
74270;BME280;62754;48.252;11.654;2023-08-31T11:38:48;95994.78;;;19.17;56.74
74270;BME280;62754;48.252;11.654;2023-08-31T11:41:14;95996.38;;;19.03;58.63
74270;BME280;62754;48.252;11.654;2023-08-31T11:43:40;95997.97;;;18.67;58.17
74270;BME280;62754;48.252;11.654;2023-08-31T11:46:07;96004.03;;;18.36;61.51
74270;BME280;62754;48.252;11.654;2023-08-31T11:48:32;96000.97;;;18.33;62.05
74270;BME280;62754;48.252;11.654;2023-08-31T11:50:59;95998.06;;;17.97;63.80
74270;BME280;62754;48.252;11.654;2023-08-31T11:53:28;96008.06;;;17.77;62.66
74270;BME280;62754;48.252;11.654;2023-08-31T11:55:54;96006.03;;;17.56;63.87
74270;BME280;62754;48.252;11.654;2023-08-31T11:58:22;96014.97;;;17.46;62.58
74270;BME280;62754;48.252;11.654;2023-08-31T12:01:00;96017.91;;;17.43;63.55
74270;BME280;62754;48.252;11.654;2023-08-31T12:03:26;96017.91;;;17.51;63.41
74270;BME280;62754;48.252;11.654;2023-08-31T12:05:53;96012.69;;;17.51;62.32
74270;BME280;62754;48.252;11.654;2023-08-31T12:08:26;96009.16;;;17.36;61.56
74270;BME280;62754;48.252;11.654;2023-08-31T12:10:54;96004.75;;;17.44;60.66
74270;BME280;62754;48.252;11.654;2023-08-31T12:13:20;96019.63;;;17.83;59.80
74270;BME280;62754;48.252;11.654;2023-08-31T12:15:45;96014.53;;;17.89;61.66
74270;BME280;62754;48.252;11.654;2023-08-31T12:18:13;96008.34;;;17.90;62.36
74270;BME280;62754;48.252;11.654;2023-08-31T12:20:49;96014.75;;;17.80;63.18
74270;BME280;62754;48.252;11.654;2023-08-31T12:23:15;96004.88;;;18.60;59.30
74270;BME280;62754;48.252;11.654;2023-08-31T12:25:51;96014.34;;;20.09;57.00
74270;BME280;62754;48.252;11.654;2023-08-31T12:28:22;96010.56;;;19.96;56.44
74270;BME280;62754;48.252;11.654;2023-08-31T12:30:49;96019.00;;;20.64;52.87
74270;BME280;62754;48.252;11.654;2023-08-31T12:33:19;96013.34;;;20.60;52.40
74270;BME280;62754;48.252;11.654;2023-08-31T12:35:45;96015.03;;;20.47;54.25
74270;BME280;62754;48.252;11.654;2023-08-31T12:38:11;96003.41;;;20.20;55.79
74270;BME280;62754;48.252;11.654;2023-08-31T12:40:37;96004.84;;;19.57;55.28
74270;BME280;62754;48.252;11.654;2023-08-31T12:43:05;96012.84;;;19.41;56.84
74270;BME280;62754;48.252;11.654;2023-08-31T12:45:33;96007.22;;;18.46;57.56
74270;BME280;62754;48.252;11.654;2023-08-31T12:48:02;96014.69;;;18.27;57.33
74270;BME280;62754;48.252;11.654;2023-08-31T12:50:28;96012.06;;;17.96;58.93
74270;BME280;62754;48.252;11.654;2023-08-31T12:52:54;96011.03;;;17.74;59.28
74270;BME280;62754;48.252;11.654;2023-08-31T12:55:19;96009.13;;;17.52;61.09
74270;BME280;62754;48.252;11.654;2023-08-31T12:57:47;96019.41;;;17.37;60.91
74270;BME280;62754;48.252;11.654;2023-08-31T13:00:16;96018.59;;;17.45;62.90
74270;BME280;62754;48.252;11.654;2023-08-31T13:02:44;96020.72;;;17.33;62.82
74270;BME280;62754;48.252;11.654;2023-08-31T13:05:10;96026.69;;;17.66;63.98
74270;BME280;62754;48.252;11.654;2023-08-31T13:07:36;96025.72;;;17.67;62.80
74270;BME280;62754;48.252;11.654;2023-08-31T13:10:05;96025.97;;;17.80;62.35